Time;durP1;ratioP1;P1;durP2;ratioP2;P2;SDS_P1;SDS_P2;PMS_P1;PMS_P2;Temp;Humidity;BMP_temperature;BMP_pressure;BME280_temperature;BME280_humidity;BME280_pressure;Samples;Min_cycle;Max_cycle;Signal;HPM_P1;HPM_P2
2023/05/30 00:01:15;;;;;;;6.93;2.60;;;13.10;98.30;;;;;;5027535;28;20417;-70
2023/05/30 00:03:44;;;;;;;5.90;2.27;;;13.10;98.40;;;;;;5027821;28;20175;-70
2023/05/30 00:06:11;;;;;;;5.83;1.80;;;13.10;98.70;;;;;;5030612;28;20198;-71
2023/05/30 00:08:37;;;;;;;8.27;2.67;;;13.00;98.40;;;;;;5032113;28;20420;-71
2023/05/30 00:11:02;;;;;;;6.27;2.77;;;13.10;98.70;;;;;;5032157;28;20408;-70
2023/05/30 00:13:28;;;;;;;6.60;2.93;;;13.00;98.90;;;;;;5031888;28;20934;-71
2023/05/30 00:15:57;;;;;;;7.30;2.70;;;12.90;99.10;;;;;;5032055;28;20257;-70
2023/05/30 00:18:23;;;;;;;8.57;2.27;;;12.80;99.40;;;;;;5031988;28;20756;-71
2023/05/30 00:20:50;;;;;;;4.73;2.10;;;12.90;99.50;;;;;;5031908;28;20424;-70
2023/05/30 00:23:16;;;;;;;10.50;2.57;;;12.90;99.50;;;;;;5031807;28;20408;-70
2023/05/30 00:25:42;;;;;;;7.23;3.80;;;13.00;99.60;;;;;;5031921;28;20409;-70
2023/05/30 00:28:08;;;;;;;5.90;2.33;;;12.90;99.70;;;;;;5031765;28;20201;-70
2023/05/30 00:30:35;;;;;;;7.73;2.67;;;12.80;99.90;;;;;;5031615;28;21056;-71
2023/05/30 00:33:01;;;;;;;5.90;2.30;;;12.80;99.90;;;;;;5031781;28;20227;-70
2023/05/30 00:35:27;;;;;;;9.20;2.13;;;12.80;99.90;;;;;;5031607;28;20409;-70
2023/05/30 00:37:52;;;;;;;10.67;2.80;;;12.70;99.90;;;;;;5031467;28;20491;-70
2023/05/30 00:40:19;;;;;;;8.80;2.67;;;12.60;99.90;;;;;;5030408;28;20182;-70
2023/05/30 00:42:44;;;;;;;5.10;3.20;;;12.60;99.90;;;;;;5031533;28;20174;-70
2023/05/30 00:45:10;;;;;;;8.77;2.80;;;12.50;99.90;;;;;;5031323;28;20416;-70
2023/05/30 00:47:36;;;;;;;5.90;2.30;;;12.50;99.90;;;;;;5031237;28;20206;-70
2023/05/30 00:50:03;;;;;;;6.33;2.30;;;12.40;99.90;;;;;;5031241;28;20206;-70
2023/05/30 00:52:29;;;;;;;8.47;2.13;;;12.40;99.90;;;;;;5031503;28;20763;-70
2023/05/30 00:55:01;;;;;;;7.30;2.67;;;12.30;99.90;;;;;;5031423;28;20490;-71
2023/05/30 00:57:28;;;;;;;7.87;2.27;;;12.30;99.90;;;;;;5031073;28;20459;-70
2023/05/30 00:59:55;;;;;;;5.30;2.57;;;12.30;99.90;;;;;;5030276;28;20424;-70
2023/05/30 01:02:21;;;;;;;5.83;2.07;;;12.30;99.90;;;;;;5031303;28;20785;-70
2023/05/30 01:04:48;;;;;;;4.73;2.40;;;12.30;99.90;;;;;;5029783;28;20424;-70
2023/05/30 01:07:14;;;;;;;7.10;2.13;;;12.20;99.90;;;;;;5031068;28;20201;-70
2023/05/30 01:09:40;;;;;;;8.57;2.20;;;12.10;99.90;;;;;;5030986;28;20456;-70
2023/05/30 01:12:36;;;;;;;5.57;1.90;;;12.10;99.90;;;;;;5031116;28;20455;-71
2023/05/30 01:15:11;;;;;;;7.97;2.27;;;12.20;99.90;;;;;;5030596;28;20424;-70
2023/05/30 01:18:00;;;;;;;5.17;2.10;;;12.10;99.90;;;;;;5029643;28;20527;-70
2023/05/30 01:20:27;;;;;;;5.90;2.40;;;12.10;99.90;;;;;;5030969;28;20406;-70
2023/05/30 01:23:06;;;;;;;5.80;2.10;;;12.00;99.90;;;;;;5030915;28;20444;-70
2023/05/30 01:25:59;;;;;;;4.20;2.17;;;11.90;99.90;;;;;;5030985;28;20516;-70
2023/05/30 01:28:29;;;;;;;8.00;2.83;;;11.90;99.90;;;;;;5030590;28;20417;-70
2023/05/30 01:30:57;;;;;;;7.67;2.10;;;11.90;99.90;;;;;;5029382;28;20405;-70
2023/05/30 01:33:26;;;;;;;8.50;2.20;;;11.90;99.90;;;;;;5030418;28;20471;-70
2023/05/30 01:35:51;;;;;;;6.17;2.30;;;11.90;99.90;;;;;;5030615;28;20890;-70
2023/05/30 01:38:17;;;;;;;6.57;2.40;;;11.90;99.90;;;;;;5029159;28;20425;-70
2023/05/30 01:40:53;;;;;;;10.50;2.87;;;11.80;99.90;;;;;;5030346;28;20221;-70
2023/05/30 01:43:43;;;;;;;9.07;2.50;;;11.80;99.90;;;;;;5030135;28;20417;-70
2023/05/30 01:46:16;;;;;;;9.93;2.30;;;11.90;99.90;;;;;;5030472;28;20417;-70
2023/05/30 01:48:53;;;;;;;8.23;2.20;;;11.90;99.90;;;;;;5030203;28;20471;-70
2023/05/30 01:51:26;;;;;;;5.93;2.30;;;11.90;99.90;;;;;;5029027;28;20447;-70
2023/05/30 01:53:58;;;;;;;10.07;2.80;;;11.90;99.90;;;;;;5030160;28;20432;-70
2023/05/30 01:56:26;;;;;;;6.80;2.93;;;11.70;99.90;;;;;;5030259;28;20436;-70
2023/05/30 01:58:52;;;;;;;9.63;2.30;;;11.70;99.90;;;;;;5029077;28;20727;-70
2023/05/30 02:01:19;;;;;;;8.83;2.43;;;11.60;99.90;;;;;;5030189;28;20933;-70
2023/05/30 02:03:47;;;;;;;10.53;2.53;;;11.60;99.90;;;;;;5029828;28;20417;-70
2023/05/30 02:06:12;;;;;;;12.43;2.70;;;11.50;99.90;;;;;;5029810;28;20487;-70
2023/05/30 02:08:38;;;;;;;5.80;2.63;;;11.50;99.90;;;;;;5029745;28;20417;-70
2023/05/30 02:11:04;;;;;;;13.00;2.77;;;11.40;99.90;;;;;;5029811;28;20171;-70
2023/05/30 02:13:30;;;;;;;14.03;2.57;;;11.30;99.90;;;;;;5029680;28;20209;-70
2023/05/30 02:15:56;;;;;;;18.43;2.67;;;11.30;99.90;;;;;;5029792;28;20194;-70
2023/05/30 02:18:21;;;;;;;5.50;2.47;;;11.30;99.90;;;;;;5029746;28;20195;-70
2023/05/30 02:20:47;;;;;;;8.23;2.50;;;11.30;99.90;;;;;;5029840;28;20436;-70
2023/05/30 02:23:13;;;;;;;6.70;2.77;;;11.30;99.90;;;;;;5029641;28;20185;-71
2023/05/30 02:25:38;;;;;;;6.43;2.13;;;11.20;99.90;;;;;;5029969;28;20200;-70
2023/05/30 02:28:04;;;;;;;7.40;2.80;;;11.30;99.90;;;;;;5028948;28;20252;-70
2023/05/30 02:30:30;;;;;;;6.80;2.70;;;11.30;99.90;;;;;;5029371;28;20229;-70
2023/05/30 02:32:55;;;;;;;8.07;2.70;;;11.30;99.90;;;;;;5029479;28;20184;-70
2023/05/30 02:35:21;;;;;;;9.50;2.70;;;11.20;99.90;;;;;;5029516;28;20414;-70
2023/05/30 02:37:47;;;;;;;8.80;2.70;;;11.10;99.90;;;;;;5027828;28;20202;-70
2023/05/30 02:40:13;;;;;;;9.77;3.57;;;11.00;99.90;;;;;;5029596;28;20816;-70
2023/05/30 02:42:38;;;;;;;6.47;2.80;;;11.00;99.90;;;;;;5029267;28;20174;-70
2023/05/30 02:45:05;;;;;;;9.40;3.03;;;11.00;99.90;;;;;;5027912;28;20193;-70
2023/05/30 02:47:31;;;;;;;7.07;3.50;;;10.90;99.90;;;;;;5029121;28;20205;-70
2023/05/30 02:49:56;;;;;;;6.53;2.70;;;10.90;99.90;;;;;;5029165;28;20813;-70
2023/05/30 02:52:22;;;;;;;9.00;2.40;;;10.90;99.90;;;;;;5029212;28;20167;-70
2023/05/30 02:54:48;;;;;;;7.67;3.03;;;10.90;99.90;;;;;;5029049;28;20175;-70
2023/05/30 02:57:15;;;;;;;12.73;3.23;;;10.90;99.90;;;;;;5028936;28;20197;-70
2023/05/30 02:59:41;;;;;;;10.80;3.47;;;10.90;99.90;;;;;;5027879;28;20948;-70
2023/05/30 03:02:06;;;;;;;10.77;2.70;;;11.00;99.90;;;;;;5029123;28;20417;-70
2023/05/30 03:04:32;;;;;;;10.20;3.47;;;11.00;99.90;;;;;;5027121;28;20441;-70
2023/05/30 03:06:59;;;;;;;14.83;4.10;;;11.00;99.90;;;;;;5028848;28;20248;-70
2023/05/30 03:09:24;;;;;;;8.97;3.50;;;11.00;99.90;;;;;;5028559;28;20921;-70
2023/05/30 03:11:50;;;;;;;7.90;3.77;;;11.00;99.90;;;;;;5029035;28;20435;-70
2023/05/30 03:14:16;;;;;;;10.10;3.87;;;11.00;99.90;;;;;;5028690;28;20247;-70
2023/05/30 03:16:41;;;;;;;8.30;3.30;;;11.00;99.90;;;;;;5028772;28;20190;-70
2023/05/30 03:19:08;;;;;;;10.63;4.00;;;11.00;99.90;;;;;;5027498;28;20178;-70
2023/05/30 03:21:34;;;;;;;5.00;3.73;;;11.00;99.90;;;;;;5028423;28;20171;-70
2023/05/30 03:24:00;;;;;;;9.57;4.43;;;11.10;99.90;;;;;;5028525;28;20477;-70
2023/05/30 03:26:27;;;;;;;9.77;4.73;;;11.10;99.90;;;;;;5028575;28;21151;-70
2023/05/30 03:28:53;;;;;;;16.57;6.47;;;11.10;99.90;;;;;;5028426;28;20611;-70
2023/05/30 03:31:19;;;;;;;11.47;5.50;;;11.20;99.90;;;;;;5028240;28;20471;-70
2023/05/30 03:33:45;;;;;;;11.93;6.67;;;11.20;99.90;;;;;;5028362;28;20493;-70
2023/05/30 03:36:10;;;;;;;13.37;7.23;;;11.20;99.90;;;;;;5028612;28;20492;-70
2023/05/30 03:38:37;;;;;;;12.77;6.50;;;11.10;99.90;;;;;;5027779;28;20174;-69
2023/05/30 03:41:03;;;;;;;11.00;6.93;;;11.10;99.90;;;;;;5028015;28;20182;-70
2023/05/30 03:43:29;;;;;;;9.93;6.37;;;11.10;99.90;;;;;;5026708;28;20521;-71
2023/05/30 03:45:55;;;;;;;17.63;7.07;;;11.10;99.90;;;;;;5028379;28;20508;-71
2023/05/30 03:48:20;;;;;;;11.83;6.53;;;11.10;99.90;;;;;;5026919;28;20437;-70
2023/05/30 03:50:46;;;;;;;10.80;6.20;;;11.20;99.90;;;;;;5028462;28;20214;-69
2023/05/30 03:53:12;;;;;;;15.63;5.50;;;11.20;99.90;;;;;;5026795;28;20213;-70
2023/05/30 03:55:38;;;;;;;9.00;5.70;;;11.10;99.90;;;;;;5028271;28;20171;-71
2023/05/30 03:58:04;;;;;;;12.20;5.83;;;11.10;99.90;;;;;;5027928;28;20197;-70
2023/05/30 04:00:30;;;;;;;11.20;6.13;;;11.10;99.90;;;;;;5027247;28;20413;-71
2023/05/30 04:02:59;;;;;;;11.30;6.03;;;11.20;99.90;;;;;;5026857;28;20252;-71
2023/05/30 04:05:25;;;;;;;11.20;5.93;;;11.10;99.90;;;;;;5027993;28;20440;-70
2023/05/30 04:07:51;;;;;;;19.53;6.47;;;11.10;99.90;;;;;;5028022;28;20198;-70
2023/05/30 04:10:17;;;;;;;13.23;6.20;;;11.00;99.90;;;;;;5027852;28;20973;-70
2023/05/30 04:12:43;;;;;;;9.40;6.30;;;11.10;99.90;;;;;;5028129;28;20418;-70
2023/05/30 04:15:09;;;;;;;11.10;5.20;;;11.10;99.90;;;;;;5027860;28;20183;-71
2023/05/30 04:17:35;;;;;;;11.40;6.50;;;11.20;99.90;;;;;;5027846;28;20965;-70
2023/05/30 04:20:04;;;;;;;9.50;6.20;;;11.30;99.90;;;;;;5028112;28;20418;-70
2023/05/30 04:22:30;;;;;;;12.00;6.90;;;11.30;99.90;;;;;;5028024;28;20428;-70
2023/05/30 04:24:56;;;;;;;14.10;7.70;;;11.30;99.90;;;;;;5027925;28;20504;-71
2023/05/30 04:27:22;;;;;;;11.10;6.70;;;11.30;99.90;;;;;;5027792;28;20870;-70
2023/05/30 04:29:48;;;;;;;10.10;6.30;;;11.30;99.90;;;;;;5026630;28;21176;-69
2023/05/30 04:32:14;;;;;;;13.10;7.20;;;11.30;99.90;;;;;;5026646;28;20448;-70
2023/05/30 04:34:40;;;;;;;14.03;5.97;;;11.30;99.90;;;;;;5027635;28;20178;-71
2023/05/30 04:37:07;;;;;;;12.53;6.97;;;11.30;99.90;;;;;;5027788;28;20230;-70
2023/05/30 04:39:33;;;;;;;11.20;7.13;;;11.40;99.90;;;;;;5027736;28;20194;-70
2023/05/30 04:41:59;;;;;;;14.00;7.03;;;11.40;99.90;;;;;;5023591;28;20441;-71
2023/05/30 04:44:25;;;;;;;12.97;7.40;;;11.50;99.90;;;;;;5024782;28;20440;-71
2023/05/30 04:46:51;;;;;;;11.30;9.13;;;11.40;99.90;;;;;;5021461;28;20546;-71
2023/05/30 04:49:17;;;;;;;18.17;8.00;;;11.40;99.90;;;;;;5027313;28;20496;-71
2023/05/30 04:51:46;;;;;;;13.10;7.50;;;11.40;99.90;;;;;;5027943;28;20195;-71
2023/05/30 04:54:14;;;;;;;12.80;7.03;;;11.40;99.90;;;;;;5029967;28;20182;-71
2023/05/30 04:56:41;;;;;;;16.63;8.57;;;11.40;99.90;;;;;;5030496;28;20437;-71
2023/05/30 04:59:07;;;;;;;8.73;7.03;;;11.40;99.90;;;;;;5030922;28;20989;-71
2023/05/30 05:01:35;;;;;;;13.10;7.10;;;11.50;99.90;;;;;;5031386;28;20544;-71
2023/05/30 05:04:02;;;;;;;16.43;8.80;;;11.40;99.90;;;;;;5030313;28;20178;-71
2023/05/30 05:06:27;;;;;;;16.53;8.13;;;11.40;99.90;;;;;;5029704;28;20499;-71
2023/05/30 05:08:53;;;;;;;14.47;8.77;;;11.40;99.90;;;;;;5031061;28;20460;-70
2023/05/30 05:11:19;;;;;;;12.67;8.67;;;11.40;99.90;;;;;;5030923;28;20163;-70
2023/05/30 05:13:44;;;;;;;17.90;8.40;;;11.40;99.90;;;;;;5019426;28;20183;-70
2023/05/30 05:16:10;;;;;;;13.97;7.97;;;11.40;99.90;;;;;;5011221;28;20222;-69
2023/05/30 05:18:36;;;;;;;11.73;7.30;;;11.40;99.90;;;;;;5010005;28;20170;-70
2023/05/30 05:21:02;;;;;;;15.30;7.77;;;11.40;99.90;;;;;;5011295;28;20548;-71
2023/05/30 05:23:28;;;;;;;14.57;8.10;;;11.40;99.90;;;;;;5011009;28;20410;-70
2023/05/30 05:25:54;;;;;;;11.33;7.90;;;11.50;99.90;;;;;;5011265;28;20669;-71
2023/05/30 05:28:20;;;;;;;14.10;7.60;;;11.50;99.90;;;;;;5011158;28;21185;-71
2023/05/30 05:30:48;;;;;;;11.90;7.53;;;11.60;99.90;;;;;;5030030;28;20462;-71
2023/05/30 05:33:15;;;;;;;9.43;6.07;;;11.60;99.90;;;;;;5049426;28;20201;-70
2023/05/30 05:35:41;;;;;;;17.37;7.50;;;11.60;99.90;;;;;;5026908;28;20433;-70
2023/05/30 05:38:07;;;;;;;12.10;7.07;;;11.60;99.90;;;;;;5029563;28;20441;-70
2023/05/30 05:40:32;;;;;;;11.03;7.00;;;11.60;99.90;;;;;;5030640;28;20424;-71
2023/05/30 05:42:58;;;;;;;14.47;7.20;;;11.60;99.90;;;;;;5030727;28;20257;-70
2023/05/30 05:45:23;;;;;;;12.23;7.90;;;11.70;99.90;;;;;;5028797;28;20317;-70
2023/05/30 05:47:49;;;;;;;10.40;7.53;;;11.80;99.90;;;;;;5029973;28;20273;-70
2023/05/30 05:50:15;;;;;;;11.13;6.70;;;11.80;99.90;;;;;;5026788;28;20706;-71
2023/05/30 05:52:41;;;;;;;9.10;6.57;;;11.80;99.90;;;;;;5029434;28;20178;-71
2023/05/30 05:55:07;;;;;;;11.30;6.70;;;11.80;99.90;;;;;;5027305;28;20655;-70
2023/05/30 05:57:33;;;;;;;15.23;7.53;;;11.80;99.90;;;;;;5026073;28;20484;-71
2023/05/30 05:59:58;;;;;;;12.40;7.40;;;11.90;99.90;;;;;;5028520;28;20467;-70
2023/05/30 06:02:24;;;;;;;11.30;7.23;;;12.00;99.90;;;;;;5024075;28;20189;-70
2023/05/30 06:04:50;;;;;;;12.90;8.07;;;12.00;99.90;;;;;;5027038;28;20794;-71
2023/05/30 06:07:16;;;;;;;13.03;6.83;;;12.00;99.90;;;;;;5029257;28;20531;-70
2023/05/30 06:09:42;;;;;;;14.47;6.37;;;12.00;99.90;;;;;;5029312;28;20496;-71
2023/05/30 06:12:08;;;;;;;19.33;8.80;;;12.00;99.90;;;;;;5029344;28;20265;-71
2023/05/30 06:14:34;;;;;;;18.40;7.70;;;12.10;99.90;;;;;;5029105;28;20405;-70
2023/05/30 06:17:03;;;;;;;10.47;6.70;;;12.10;99.90;;;;;;5028353;28;20221;-71
2023/05/30 06:19:29;;;;;;;15.07;7.93;;;12.20;99.90;;;;;;5029778;28;20914;-71
2023/05/30 06:21:55;;;;;;;14.50;7.00;;;12.30;99.90;;;;;;5029847;28;20414;-70
2023/05/30 06:24:20;;;;;;;12.43;8.30;;;12.50;99.90;;;;;;5029747;28;20223;-71
2023/05/30 06:26:46;;;;;;;16.27;8.03;;;12.50;99.90;;;;;;5030013;28;20721;-71
2023/05/30 06:29:12;;;;;;;10.53;7.60;;;12.50;99.90;;;;;;5029758;28;20250;-71
2023/05/30 06:31:37;;;;;;;13.40;7.83;;;12.60;99.90;;;;;;5045959;28;20925;-70
2023/05/30 06:34:03;;;;;;;10.83;9.27;;;12.60;99.90;;;;;;5040769;28;20592;-70
2023/05/30 06:36:30;;;;;;;15.77;9.33;;;12.60;99.90;;;;;;5020023;28;20348;-71
2023/05/30 06:38:56;;;;;;;11.57;8.00;;;12.60;99.90;;;;;;5017851;28;20178;-70
2023/05/30 06:41:22;;;;;;;10.20;7.57;;;12.60;99.90;;;;;;5010492;28;20456;-70
2023/05/30 06:43:48;;;;;;;15.30;7.90;;;12.70;99.90;;;;;;5017832;28;20269;-71
2023/05/30 06:46:14;;;;;;;10.43;8.57;;;12.80;99.90;;;;;;5029178;28;20583;-71
2023/05/30 06:48:40;;;;;;;13.93;7.63;;;12.80;99.90;;;;;;5029174;28;20175;-71
2023/05/30 06:51:06;;;;;;;18.67;9.63;;;12.80;99.90;;;;;;5027917;28;20405;-70
2023/05/30 06:53:32;;;;;;;14.57;8.50;;;12.90;99.90;;;;;;5028734;28;20550;-70
2023/05/30 06:55:58;;;;;;;12.90;8.57;;;12.90;99.90;;;;;;5021445;28;20413;-70
2023/05/30 06:58:25;;;;;;;14.60;10.07;;;13.10;99.90;;;;;;5029341;28;20175;-71
2023/05/30 07:00:51;;;;;;;14.20;9.10;;;13.10;99.90;;;;;;5028858;28;20205;-71
2023/05/30 07:03:17;;;;;;;14.67;9.57;;;13.20;99.90;;;;;;5028848;28;20467;-70
2023/05/30 07:05:42;;;;;;;16.47;10.57;;;13.50;99.90;;;;;;5027395;28;20836;-70
2023/05/30 07:08:08;;;;;;;12.40;9.60;;;13.80;99.90;;;;;;5026748;28;20194;-71
2023/05/30 07:10:34;;;;;;;17.00;9.27;;;14.00;99.90;;;;;;5027379;28;20213;-71
2023/05/30 07:13:00;;;;;;;12.30;9.77;;;14.10;99.90;;;;;;5028176;28;20399;-69
2023/05/30 07:15:27;;;;;;;19.30;10.93;;;14.20;99.90;;;;;;5028984;28;20821;-71
2023/05/30 07:17:52;;;;;;;14.50;9.70;;;14.20;99.90;;;;;;5028553;28;20264;-71
2023/05/30 07:20:22;;;;;;;18.80;9.70;;;14.30;99.90;;;;;;5021707;28;20418;-71
2023/05/30 07:22:49;;;;;;;16.80;9.63;;;14.20;99.90;;;;;;5009033;28;20182;-71
2023/05/30 07:25:15;;;;;;;18.93;10.07;;;14.20;99.90;;;;;;5008491;28;21032;-70
2023/05/30 07:27:40;;;;;;;15.67;9.87;;;14.20;99.90;;;;;;5006459;28;20440;-71
2023/05/30 07:30:06;;;;;;;13.10;8.90;;;14.30;99.90;;;;;;5016552;28;20497;-71
2023/05/30 07:32:32;;;;;;;14.50;8.20;;;14.50;99.90;;;;;;5048643;28;20524;-71
2023/05/30 07:34:58;;;;;;;16.60;10.77;;;14.70;99.90;;;;;;5048185;28;20400;-70
2023/05/30 07:37:23;;;;;;;15.73;10.37;;;14.80;99.90;;;;;;5048274;28;20212;-70
2023/05/30 07:39:49;;;;;;;19.50;10.33;;;14.80;99.90;;;;;;5048162;28;20186;-70
2023/05/30 07:42:15;;;;;;;15.13;9.47;;;14.80;99.90;;;;;;5048514;28;20182;-71
2023/05/30 07:44:40;;;;;;;16.20;10.27;;;14.80;99.90;;;;;;5048096;28;20176;-71
2023/05/30 07:47:06;;;;;;;18.10;9.20;;;14.80;99.90;;;;;;5048222;28;20189;-70
2023/05/30 07:49:32;;;;;;;10.33;8.50;;;14.80;99.90;;;;;;5046771;28;20706;-71
2023/05/30 07:51:58;;;;;;;10.73;7.60;;;14.90;99.90;;;;;;5048346;28;20515;-70
2023/05/30 07:54:23;;;;;;;13.80;9.37;;;14.90;99.90;;;;;;5047905;28;20196;-71
2023/05/30 07:56:49;;;;;;;12.13;8.20;;;15.10;99.90;;;;;;5048017;28;20247;-71
2023/05/30 07:59:15;;;;;;;13.07;8.40;;;15.10;99.90;;;;;;5048350;28;20178;-71
2023/05/30 08:01:41;;;;;;;17.50;9.30;;;15.00;99.90;;;;;;5048238;28;20177;-71
2023/05/30 08:04:07;;;;;;;13.00;9.13;;;14.90;99.90;;;;;;5047836;28;20543;-71
2023/05/30 08:06:34;;;;;;;14.70;9.80;;;14.90;99.90;;;;;;5027450;28;20436;-71
2023/05/30 08:09:00;;;;;;;16.57;9.77;;;15.00;99.90;;;;;;5028277;28;20202;-71
2023/05/30 08:11:26;;;;;;;14.13;9.53;;;14.90;99.90;;;;;;5028033;28;20411;-70
2023/05/30 08:13:52;;;;;;;18.57;8.53;;;15.00;99.90;;;;;;5028061;28;20185;-71
2023/05/30 08:16:18;;;;;;;15.33;9.57;;;14.80;99.90;;;;;;5028077;28;20268;-71
2023/05/30 08:18:45;;;;;;;13.53;8.30;;;14.70;99.90;;;;;;5028159;28;20410;-70
2023/05/30 08:21:11;;;;;;;14.73;8.70;;;14.80;99.90;;;;;;5027937;28;20415;-70
2023/05/30 08:23:37;;;;;;;9.30;8.10;;;14.80;99.90;;;;;;5027980;28;20414;-71
2023/05/30 08:26:03;;;;;;;16.37;8.20;;;14.90;99.90;;;;;;5029815;28;20630;-71
2023/05/30 08:28:29;;;;;;;14.70;9.03;;;15.00;99.90;;;;;;5031431;28;20178;-71
2023/05/30 08:30:55;;;;;;;12.67;9.00;;;15.10;99.90;;;;;;5041084;28;20459;-70
2023/05/30 08:33:21;;;;;;;18.17;10.10;;;15.10;99.90;;;;;;5051649;28;20412;-71
2023/05/30 08:35:47;;;;;;;14.80;9.20;;;15.00;99.90;;;;;;5051890;28;20742;-70
2023/05/30 08:38:13;;;;;;;19.80;9.77;;;15.20;99.90;;;;;;5051555;28;20499;-71
2023/05/30 08:40:41;;;;;;;18.00;10.20;;;15.20;99.90;;;;;;5051567;28;20181;-70
2023/05/30 08:43:07;;;;;;;17.83;10.60;;;15.20;99.90;;;;;;5066661;28;20780;-71
2023/05/30 08:45:33;;;;;;;13.40;9.80;;;15.20;99.90;;;;;;5051595;28;20446;-71
2023/05/30 08:48:02;;;;;;;15.00;9.00;;;15.10;99.90;;;;;;5051524;28;20668;-71
2023/05/30 08:50:30;;;;;;;15.87;9.13;;;15.20;99.90;;;;;;5051360;28;20209;-71
2023/05/30 08:53:01;;;;;;;10.97;8.90;;;15.30;99.90;;;;;;5051381;28;20404;-71
2023/05/30 08:55:41;;;;;;;11.03;8.00;;;15.40;99.90;;;;;;5051383;28;20451;-71
2023/05/30 08:58:33;;;;;;;12.90;8.73;;;15.50;99.90;;;;;;5051323;28;20427;-70
2023/05/30 09:01:01;;;;;;;11.37;7.80;;;15.60;99.90;;;;;;5050029;28;21378;-71
2023/05/30 09:03:29;;;;;;;13.87;8.60;;;15.80;99.90;;;;;;5050995;28;20412;-71
2023/05/30 09:05:55;;;;;;;12.10;8.20;;;16.00;99.90;;;;;;5035394;28;20443;-71
2023/05/30 09:08:26;;;;;;;13.97;7.60;;;16.10;99.90;;;;;;5031057;28;20413;-71
2023/05/30 09:10:53;;;;;;;12.50;7.67;;;16.20;99.90;;;;;;5029884;28;20540;-71
2023/05/30 09:13:20;;;;;;;19.03;7.63;;;16.30;99.90;;;;;;5031001;28;20422;-71
2023/05/30 09:15:46;;;;;;;11.07;8.10;;;16.40;99.90;;;;;;5030012;28;20409;-71
2023/05/30 09:18:12;;;;;;;13.33;7.90;;;16.50;99.90;;;;;;5030653;28;20723;-71
2023/05/30 09:20:39;;;;;;;12.00;8.53;;;16.60;99.90;;;;;;5030534;28;20175;-70
2023/05/30 09:23:09;;;;;;;10.37;8.10;;;16.70;99.30;;;;;;5030214;28;20424;-70
2023/05/30 09:25:45;;;;;;;10.57;7.70;;;16.90;99.00;;;;;;5030530;28;20496;-72
2023/05/30 09:28:12;;;;;;;14.60;8.20;;;17.00;99.90;;;;;;5030306;28;20498;-71
2023/05/30 09:30:58;;;;;;;12.83;7.50;;;17.10;99.90;;;;;;5037276;28;20452;-71
2023/05/30 09:33:40;;;;;;;13.77;8.00;;;17.10;99.90;;;;;;5049681;28;20462;-71
2023/05/30 09:36:07;;;;;;;11.67;8.27;;;17.10;99.90;;;;;;5050041;28;20450;-71
2023/05/30 09:38:33;;;;;;;9.63;7.50;;;17.30;99.90;;;;;;5048522;28;20506;-71
2023/05/30 09:41:05;;;;;;;11.23;7.13;;;17.40;99.90;;;;;;5048761;28;20693;-71
2023/05/30 09:43:35;;;;;;;12.33;8.03;;;17.50;97.60;;;;;;5049867;28;20430;-71
2023/05/30 09:46:03;;;;;;;12.20;7.30;;;17.50;97.30;;;;;;5050043;28;20455;-71
2023/05/30 09:48:29;;;;;;;9.90;7.60;;;17.60;97.70;;;;;;5049603;28;20413;-71
2023/05/30 09:51:01;;;;;;;11.63;7.27;;;17.60;97.30;;;;;;5049677;28;20956;-71
2023/05/30 09:53:32;;;;;;;10.40;7.47;;;17.60;96.70;;;;;;5049512;28;20936;-71
2023/05/30 09:55:58;;;;;;;11.60;7.47;;;17.70;96.40;;;;;;5048475;28;20413;-71
2023/05/30 09:58:24;;;;;;;11.40;7.83;;;17.70;97.80;;;;;;5049574;28;20436;-72
2023/05/30 10:00:57;;;;;;;13.17;8.50;;;17.80;98.50;;;;;;5049439;28;20833;-71
2023/05/30 10:03:43;;;;;;;13.10;7.70;;;17.80;98.50;;;;;;5049413;28;20916;-71
2023/05/30 10:06:13;;;;;;;10.40;7.57;;;17.90;98.40;;;;;;5030785;28;20451;-71
2023/05/30 10:08:45;;;;;;;12.10;8.10;;;17.90;98.90;;;;;;5029269;28;20417;-71
2023/05/30 10:11:11;;;;;;;12.70;7.87;;;18.00;99.30;;;;;;5029414;28;20413;-71
2023/05/30 10:13:38;;;;;;;12.77;8.10;;;18.10;98.60;;;;;;5027983;28;20408;-71
2023/05/30 10:16:19;;;;;;;15.20;7.60;;;18.10;98.90;;;;;;5028158;28;20948;-70
2023/05/30 10:18:51;;;;;;;10.73;7.67;;;18.10;99.00;;;;;;5029795;28;20758;-71
2023/05/30 10:21:21;;;;;;;10.53;7.63;;;18.20;97.00;;;;;;5029855;28;20480;-71
2023/05/30 10:23:47;;;;;;;16.17;8.57;;;18.20;97.20;;;;;;5029553;28;20401;-71
2023/05/30 10:26:16;;;;;;;12.67;8.33;;;18.10;97.50;;;;;;5024688;28;20457;-72
2023/05/30 10:28:47;;;;;;;11.17;8.13;;;18.20;97.50;;;;;;5028427;28;20178;-71
2023/05/30 10:31:14;;;;;;;11.53;7.43;;;18.30;97.80;;;;;;5030258;28;20440;-72
2023/05/30 10:33:42;;;;;;;10.70;7.20;;;18.40;96.60;;;;;;5029153;28;20569;-71
2023/05/30 10:36:08;;;;;;;15.03;7.20;;;18.60;97.10;;;;;;5029121;28;20480;-71
2023/05/30 10:38:43;;;;;;;10.30;7.00;;;18.60;96.90;;;;;;5029040;28;20421;-71
2023/05/30 10:41:24;;;;;;;12.60;7.40;;;18.70;95.00;;;;;;5029094;28;20504;-71
2023/05/30 10:44:01;;;;;;;11.90;8.33;;;18.70;94.50;;;;;;5028934;28;20433;-71
2023/05/30 10:46:45;;;;;;;10.80;7.20;;;18.60;94.90;;;;;;5025604;28;20444;-70
2023/05/30 10:49:14;;;;;;;12.20;7.23;;;18.60;94.90;;;;;;5028571;28;20503;-70
2023/05/30 10:52:04;;;;;;;15.10;8.30;;;18.60;95.90;;;;;;5028906;28;20409;-71
2023/05/30 10:54:35;;;;;;;15.50;7.73;;;18.70;95.90;;;;;;5026286;28;21118;-71
2023/05/30 10:57:23;;;;;;;10.27;7.57;;;18.90;95.10;;;;;;5029280;28;20441;-71
2023/05/30 10:59:49;;;;;;;12.83;8.10;;;18.90;95.20;;;;;;5028805;28;20423;-71
2023/05/30 11:02:20;;;;;;;12.23;8.00;;;19.00;96.60;;;;;;5028697;28;20428;-71
2023/05/30 11:04:50;;;;;;;11.10;7.20;;;18.90;94.20;;;;;;5027367;28;21177;-71
2023/05/30 11:07:17;;;;;;;12.70;8.17;;;19.00;93.70;;;;;;5028845;28;20539;-71
2023/05/30 11:10:02;;;;;;;10.97;8.23;;;19.10;95.20;;;;;;5028462;28;20461;-71
2023/05/30 11:12:28;;;;;;;9.20;7.00;;;19.00;95.90;;;;;;5025499;28;20416;-71
2023/05/30 11:14:59;;;;;;;10.80;7.03;;;19.10;96.90;;;;;;5028478;28;20412;-71
2023/05/30 11:17:37;;;;;;;13.67;7.30;;;19.10;94.30;;;;;;5028283;28;20852;-71
2023/05/30 11:20:22;;;;;;;10.40;7.33;;;19.20;96.20;;;;;;5028470;28;20508;-71
2023/05/30 11:23:03;;;;;;;12.70;7.97;;;19.20;96.10;;;;;;5027258;28;21033;-71
2023/05/30 11:25:31;;;;;;;11.90;7.50;;;19.30;97.40;;;;;;5025546;28;20909;-71
2023/05/30 11:28:16;;;;;;;12.23;7.70;;;19.40;97.20;;;;;;5026969;28;20472;-71
2023/05/30 11:30:47;;;;;;;11.27;7.47;;;19.60;95.80;;;;;;5035041;28;20649;-71
2023/05/30 11:33:13;;;;;;;13.97;7.87;;;19.60;95.10;;;;;;5026768;28;20409;-71
2023/05/30 11:35:46;;;;;;;11.53;8.67;;;19.70;95.50;;;;;;5028252;28;20417;-71
2023/05/30 11:38:19;;;;;;;9.10;6.23;;;19.70;96.10;;;;;;5027916;28;20433;-71
2023/05/30 11:40:46;;;;;;;12.13;7.93;;;19.70;95.10;;;;;;5028235;28;20428;-71
2023/05/30 11:43:15;;;;;;;8.97;6.90;;;19.70;95.20;;;;;;5028024;28;20467;-71
2023/05/30 11:45:42;;;;;;;8.83;7.10;;;19.70;95.40;;;;;;5028708;28;20430;-71
2023/05/30 11:48:10;;;;;;;8.67;7.20;;;19.80;95.60;;;;;;5028118;28;20429;-71
2023/05/30 11:50:38;;;;;;;14.90;7.53;;;19.80;96.00;;;;;;5028183;28;20819;-71
2023/05/30 11:53:13;;;;;;;8.70;6.30;;;19.80;95.90;;;;;;5026917;28;20414;-71
2023/05/30 11:55:42;;;;;;;8.83;6.93;;;19.90;97.70;;;;;;5027520;28;20413;-71
2023/05/30 11:58:08;;;;;;;7.37;5.73;;;20.00;95.30;;;;;;5028305;28;20439;-71
2023/05/30 12:00:34;;;;;;;10.77;7.20;;;20.20;95.80;;;;;;5029196;28;20416;-71
2023/05/30 12:03:00;;;;;;;10.90;7.10;;;20.20;93.90;;;;;;5032455;28;20200;-71
2023/05/30 12:05:27;;;;;;;11.10;6.43;;;20.20;93.90;;;;;;5031977;28;20198;-71
2023/05/30 12:07:53;;;;;;;10.73;7.40;;;20.20;94.60;;;;;;5032322;28;20441;-71
2023/05/30 12:10:29;;;;;;;11.67;7.23;;;20.30;94.40;;;;;;5032074;28;20514;-71
2023/05/30 12:12:55;;;;;;;11.50;7.00;;;20.30;92.90;;;;;;5032453;28;20174;-71
2023/05/30 12:15:21;;;;;;;8.23;6.67;;;20.30;93.10;;;;;;5032363;28;20409;-71
2023/05/30 12:17:47;;;;;;;10.53;6.97;;;20.30;95.30;;;;;;5032152;28;20930;-71
2023/05/30 12:20:14;;;;;;;8.63;6.47;;;20.40;94.80;;;;;;5032170;28;20201;-70
2023/05/30 12:22:44;;;;;;;12.83;7.70;;;20.30;95.20;;;;;;5032246;28;20421;-71
2023/05/30 12:25:10;;;;;;;8.80;6.53;;;20.30;95.00;;;;;;5032037;28;20405;-71
2023/05/30 12:27:44;;;;;;;15.00;6.93;;;20.20;95.40;;;;;;5031429;28;20436;-71
2023/05/30 12:30:17;;;;;;;13.83;5.97;;;20.30;95.30;;;;;;5031807;28;20551;-71
2023/05/30 12:32:45;;;;;;;11.53;5.60;;;20.30;96.10;;;;;;5030753;28;20475;-71
2023/05/30 12:35:12;;;;;;;9.97;6.20;;;20.40;95.90;;;;;;5031820;28;20467;-71
2023/05/30 12:37:38;;;;;;;10.57;6.40;;;20.40;95.10;;;;;;5030543;28;20417;-71
2023/05/30 12:40:06;;;;;;;8.47;5.63;;;20.50;94.10;;;;;;5031840;28;20487;-71
2023/05/30 12:42:33;;;;;;;7.60;5.33;;;20.50;95.40;;;;;;5030603;28;20463;-71
2023/05/30 12:45:01;;;;;;;8.73;5.17;;;20.50;94.80;;;;;;5031601;28;20812;-71